sensor_id;sensor_type;location;lat;lon;timestamp;temperature;humidity
38514;DHT22;24282;48.400;10.808;2023-06-22T00:01:28;20.30;82.60
38514;DHT22;24282;48.400;10.808;2023-06-22T00:03:53;20.30;82.60
38514;DHT22;24282;48.400;10.808;2023-06-22T00:06:19;20.30;82.70
38514;DHT22;24282;48.400;10.808;2023-06-22T00:08:45;20.30;82.40
38514;DHT22;24282;48.400;10.808;2023-06-22T00:11:11;20.30;82.40
38514;DHT22;24282;48.400;10.808;2023-06-22T00:13:37;20.30;82.60
38514;DHT22;24282;48.400;10.808;2023-06-22T00:16:03;20.30;82.70
38514;DHT22;24282;48.400;10.808;2023-06-22T00:18:29;20.20;82.80
38514;DHT22;24282;48.400;10.808;2023-06-22T00:20:56;20.20;82.70
38514;DHT22;24282;48.400;10.808;2023-06-22T00:23:24;20.20;82.60
38514;DHT22;24282;48.400;10.808;2023-06-22T00:25:50;20.20;82.50
38514;DHT22;24282;48.400;10.808;2023-06-22T00:28:16;20.20;82.50
38514;DHT22;24282;48.400;10.808;2023-06-22T00:30:42;20.20;82.60
38514;DHT22;24282;48.400;10.808;2023-06-22T00:33:07;20.20;82.60
38514;DHT22;24282;48.400;10.808;2023-06-22T00:35:34;20.10;82.70
38514;DHT22;24282;48.400;10.808;2023-06-22T00:38:00;20.10;82.60
38514;DHT22;24282;48.400;10.808;2023-06-22T00:40:27;20.10;82.60
38514;DHT22;24282;48.400;10.808;2023-06-22T00:42:54;20.10;82.60
38514;DHT22;24282;48.400;10.808;2023-06-22T00:45:20;20.10;82.60
38514;DHT22;24282;48.400;10.808;2023-06-22T00:47:47;20.00;82.60
38514;DHT22;24282;48.400;10.808;2023-06-22T00:50:18;20.00;82.80
38514;DHT22;24282;48.400;10.808;2023-06-22T00:52:44;20.00;82.70
38514;DHT22;24282;48.400;10.808;2023-06-22T00:55:12;20.00;82.90
38514;DHT22;24282;48.400;10.808;2023-06-22T00:57:37;19.90;82.90
38514;DHT22;24282;48.400;10.808;2023-06-22T01:00:03;19.90;82.90
38514;DHT22;24282;48.400;10.808;2023-06-22T01:02:34;19.90;82.90
38514;DHT22;24282;48.400;10.808;2023-06-22T01:05:00;19.90;82.80
38514;DHT22;24282;48.400;10.808;2023-06-22T01:07:35;19.90;82.80
38514;DHT22;24282;48.400;10.808;2023-06-22T01:10:16;19.80;82.90
38514;DHT22;24282;48.400;10.808;2023-06-22T01:12:45;19.80;82.90
38514;DHT22;24282;48.400;10.808;2023-06-22T01:15:21;19.80;82.90
38514;DHT22;24282;48.400;10.808;2023-06-22T01:17:49;19.80;83.00
38514;DHT22;24282;48.400;10.808;2023-06-22T01:20:17;19.80;82.90
38514;DHT22;24282;48.400;10.808;2023-06-22T01:23:05;19.80;82.90
38514;DHT22;24282;48.400;10.808;2023-06-22T01:25:53;19.70;83.10
38514;DHT22;24282;48.400;10.808;2023-06-22T01:28:42;19.70;83.20
38514;DHT22;24282;48.400;10.808;2023-06-22T01:31:13;19.70;83.20
38514;DHT22;24282;48.400;10.808;2023-06-22T01:33:42;19.60;83.20
38514;DHT22;24282;48.400;10.808;2023-06-22T01:36:08;19.60;83.20
38514;DHT22;24282;48.400;10.808;2023-06-22T01:38:36;19.60;83.10
38514;DHT22;24282;48.400;10.808;2023-06-22T01:41:02;19.60;83.10
38514;DHT22;24282;48.400;10.808;2023-06-22T01:43:29;19.50;83.00
38514;DHT22;24282;48.400;10.808;2023-06-22T01:45:56;19.50;83.10
38514;DHT22;24282;48.400;10.808;2023-06-22T01:48:23;19.50;83.30
38514;DHT22;24282;48.400;10.808;2023-06-22T01:50:49;19.60;83.30
38514;DHT22;24282;48.400;10.808;2023-06-22T01:53:16;19.50;83.20
38514;DHT22;24282;48.400;10.808;2023-06-22T01:55:42;19.60;83.10
38514;DHT22;24282;48.400;10.808;2023-06-22T01:58:07;19.60;83.20
38514;DHT22;24282;48.400;10.808;2023-06-22T02:00:36;19.60;83.10
38514;DHT22;24282;48.400;10.808;2023-06-22T02:03:10;19.60;83.20
38514;DHT22;24282;48.400;10.808;2023-06-22T02:05:41;19.60;83.40
38514;DHT22;24282;48.400;10.808;2023-06-22T02:08:09;19.60;83.40
38514;DHT22;24282;48.400;10.808;2023-06-22T02:10:37;19.60;83.30
38514;DHT22;24282;48.400;10.808;2023-06-22T02:13:06;19.60;83.30
38514;DHT22;24282;48.400;10.808;2023-06-22T02:15:32;19.60;83.30
38514;DHT22;24282;48.400;10.808;2023-06-22T02:17:58;19.60;83.40
38514;DHT22;24282;48.400;10.808;2023-06-22T02:20:25;19.60;83.30
38514;DHT22;24282;48.400;10.808;2023-06-22T02:22:50;19.60;83.30
38514;DHT22;24282;48.400;10.808;2023-06-22T02:25:16;19.60;83.50
38514;DHT22;24282;48.400;10.808;2023-06-22T02:27:45;19.60;83.50
38514;DHT22;24282;48.400;10.808;2023-06-22T02:30:12;19.60;83.50
38514;DHT22;24282;48.400;10.808;2023-06-22T02:32:38;19.50;83.70
38514;DHT22;24282;48.400;10.808;2023-06-22T02:35:07;19.50;83.60
38514;DHT22;24282;48.400;10.808;2023-06-22T02:37:35;19.50;83.80
38514;DHT22;24282;48.400;10.808;2023-06-22T02:40:06;19.50;83.80
38514;DHT22;24282;48.400;10.808;2023-06-22T02:42:34;19.40;83.80
38514;DHT22;24282;48.400;10.808;2023-06-22T02:45:00;19.40;83.80
38514;DHT22;24282;48.400;10.808;2023-06-22T02:47:26;19.40;83.80
38514;DHT22;24282;48.400;10.808;2023-06-22T02:49:52;19.40;83.90
38514;DHT22;24282;48.400;10.808;2023-06-22T02:52:18;19.40;83.90
38514;DHT22;24282;48.400;10.808;2023-06-22T02:54:44;19.40;83.90
38514;DHT22;24282;48.400;10.808;2023-06-22T02:57:13;19.40;83.90
38514;DHT22;24282;48.400;10.808;2023-06-22T02:59:41;19.40;83.90
38514;DHT22;24282;48.400;10.808;2023-06-22T03:02:09;19.30;83.90
38514;DHT22;24282;48.400;10.808;2023-06-22T03:04:35;19.30;83.90
38514;DHT22;24282;48.400;10.808;2023-06-22T03:07:01;19.20;84.00
38514;DHT22;24282;48.400;10.808;2023-06-22T03:09:29;19.20;84.10
38514;DHT22;24282;48.400;10.808;2023-06-22T03:11:57;19.30;84.20
38514;DHT22;24282;48.400;10.808;2023-06-22T03:14:26;19.20;84.10
38514;DHT22;24282;48.400;10.808;2023-06-22T03:16:52;19.20;84.20
38514;DHT22;24282;48.400;10.808;2023-06-22T03:19:19;19.20;84.20
38514;DHT22;24282;48.400;10.808;2023-06-22T03:21:47;19.10;84.10
38514;DHT22;24282;48.400;10.808;2023-06-22T03:24:12;19.10;84.20
38514;DHT22;24282;48.400;10.808;2023-06-22T03:26:38;19.10;84.20
38514;DHT22;24282;48.400;10.808;2023-06-22T03:29:04;19.10;84.30
38514;DHT22;24282;48.400;10.808;2023-06-22T03:31:30;19.10;84.30
38514;DHT22;24282;48.400;10.808;2023-06-22T03:33:56;19.10;84.30
38514;DHT22;24282;48.400;10.808;2023-06-22T03:36:23;19.10;84.30
38514;DHT22;24282;48.400;10.808;2023-06-22T03:38:49;19.10;84.20
38514;DHT22;24282;48.400;10.808;2023-06-22T03:41:16;19.10;84.30
38514;DHT22;24282;48.400;10.808;2023-06-22T03:43:42;19.10;84.30
38514;DHT22;24282;48.400;10.808;2023-06-22T03:46:08;19.10;84.30
38514;DHT22;24282;48.400;10.808;2023-06-22T03:48:34;19.10;84.30
38514;DHT22;24282;48.400;10.808;2023-06-22T03:51:00;19.20;84.20
38514;DHT22;24282;48.400;10.808;2023-06-22T03:53:26;19.10;84.20
38514;DHT22;24282;48.400;10.808;2023-06-22T03:55:52;19.20;84.30
38514;DHT22;24282;48.400;10.808;2023-06-22T03:58:19;19.20;84.30
38514;DHT22;24282;48.400;10.808;2023-06-22T04:00:50;19.20;84.40
38514;DHT22;24282;48.400;10.808;2023-06-22T04:03:17;19.20;84.30
38514;DHT22;24282;48.400;10.808;2023-06-22T04:05:44;19.20;84.30
38514;DHT22;24282;48.400;10.808;2023-06-22T04:08:12;19.10;84.30
38514;DHT22;24282;48.400;10.808;2023-06-22T04:10:38;19.20;84.40
38514;DHT22;24282;48.400;10.808;2023-06-22T04:13:04;19.20;84.50
38514;DHT22;24282;48.400;10.808;2023-06-22T04:15:29;19.20;84.60
38514;DHT22;24282;48.400;10.808;2023-06-22T04:17:55;19.20;84.70
38514;DHT22;24282;48.400;10.808;2023-06-22T04:20:22;19.20;84.70
38514;DHT22;24282;48.400;10.808;2023-06-22T04:22:48;19.30;84.80
38514;DHT22;24282;48.400;10.808;2023-06-22T04:25:14;19.20;84.70
38514;DHT22;24282;48.400;10.808;2023-06-22T04:27:39;19.20;84.60
38514;DHT22;24282;48.400;10.808;2023-06-22T04:30:08;19.30;84.40
38514;DHT22;24282;48.400;10.808;2023-06-22T04:32:35;19.30;84.30
38514;DHT22;24282;48.400;10.808;2023-06-22T04:35:05;19.30;84.20
38514;DHT22;24282;48.400;10.808;2023-06-22T04:37:32;19.30;84.30
38514;DHT22;24282;48.400;10.808;2023-06-22T04:39:58;19.30;84.30
38514;DHT22;24282;48.400;10.808;2023-06-22T04:42:27;19.40;84.30
38514;DHT22;24282;48.400;10.808;2023-06-22T04:44:53;19.40;84.50
38514;DHT22;24282;48.400;10.808;2023-06-22T04:47:19;19.40;84.50
38514;DHT22;24282;48.400;10.808;2023-06-22T04:49:45;19.40;84.50
38514;DHT22;24282;48.400;10.808;2023-06-22T04:52:12;19.40;84.50
38514;DHT22;24282;48.400;10.808;2023-06-22T04:54:40;19.40;84.40
38514;DHT22;24282;48.400;10.808;2023-06-22T04:57:14;19.40;84.40
38514;DHT22;24282;48.400;10.808;2023-06-22T04:59:41;19.40;84.30
38514;DHT22;24282;48.400;10.808;2023-06-22T05:02:07;19.50;84.20
38514;DHT22;24282;48.400;10.808;2023-06-22T05:04:34;19.40;84.30
38514;DHT22;24282;48.400;10.808;2023-06-22T05:07:02;19.50;84.40
38514;DHT22;24282;48.400;10.808;2023-06-22T05:09:29;19.60;84.50
38514;DHT22;24282;48.400;10.808;2023-06-22T05:11:55;19.50;84.50
38514;DHT22;24282;48.400;10.808;2023-06-22T05:14:22;19.50;84.50
38514;DHT22;24282;48.400;10.808;2023-06-22T05:16:49;19.60;84.50
38514;DHT22;24282;48.400;10.808;2023-06-22T05:19:17;19.60;84.60
38514;DHT22;24282;48.400;10.808;2023-06-22T05:21:43;19.60;84.50
38514;DHT22;24282;48.400;10.808;2023-06-22T05:24:09;19.60;84.50
38514;DHT22;24282;48.400;10.808;2023-06-22T05:26:35;19.60;84.60
38514;DHT22;24282;48.400;10.808;2023-06-22T05:29:02;19.60;84.70
38514;DHT22;24282;48.400;10.808;2023-06-22T05:31:28;19.70;84.50
38514;DHT22;24282;48.400;10.808;2023-06-22T05:33:54;19.70;84.40
38514;DHT22;24282;48.400;10.808;2023-06-22T05:36:20;19.80;84.40
38514;DHT22;24282;48.400;10.808;2023-06-22T05:38:49;19.80;84.40
38514;DHT22;24282;48.400;10.808;2023-06-22T05:41:15;19.80;84.40
38514;DHT22;24282;48.400;10.808;2023-06-22T05:43:40;19.80;84.50
38514;DHT22;24282;48.400;10.808;2023-06-22T05:46:06;19.90;84.60
38514;DHT22;24282;48.400;10.808;2023-06-22T05:48:32;19.90;84.70
38514;DHT22;24282;48.400;10.808;2023-06-22T05:50:59;19.90;84.60
38514;DHT22;24282;48.400;10.808;2023-06-22T05:53:25;20.00;84.40
38514;DHT22;24282;48.400;10.808;2023-06-22T05:55:51;20.00;84.20
38514;DHT22;24282;48.400;10.808;2023-06-22T05:58:16;20.10;84.00
38514;DHT22;24282;48.400;10.808;2023-06-22T06:00:43;20.10;83.80
38514;DHT22;24282;48.400;10.808;2023-06-22T06:03:09;20.20;83.70
38514;DHT22;24282;48.400;10.808;2023-06-22T06:05:35;20.20;83.60
38514;DHT22;24282;48.400;10.808;2023-06-22T06:08:04;20.30;83.70
38514;DHT22;24282;48.400;10.808;2023-06-22T06:10:33;20.30;83.60
38514;DHT22;24282;48.400;10.808;2023-06-22T06:13:00;20.40;83.10
38514;DHT22;24282;48.400;10.808;2023-06-22T06:15:31;20.40;82.40
38514;DHT22;24282;48.400;10.808;2023-06-22T06:17:57;20.40;82.00
38514;DHT22;24282;48.400;10.808;2023-06-22T06:20:24;20.40;81.80
38514;DHT22;24282;48.400;10.808;2023-06-22T06:22:50;20.50;81.60
38514;DHT22;24282;48.400;10.808;2023-06-22T06:25:16;20.60;81.50
38514;DHT22;24282;48.400;10.808;2023-06-22T06:27:45;20.60;81.50
38514;DHT22;24282;48.400;10.808;2023-06-22T06:30:12;20.70;81.40
38514;DHT22;24282;48.400;10.808;2023-06-22T06:32:38;20.70;81.20
38514;DHT22;24282;48.400;10.808;2023-06-22T06:35:09;20.80;80.70
38514;DHT22;24282;48.400;10.808;2023-06-22T06:37:38;20.80;80.80
38514;DHT22;24282;48.400;10.808;2023-06-22T06:40:08;20.90;80.80
38514;DHT22;24282;48.400;10.808;2023-06-22T06:42:37;20.90;80.80
38514;DHT22;24282;48.400;10.808;2023-06-22T06:45:05;20.90;80.40
38514;DHT22;24282;48.400;10.808;2023-06-22T06:47:31;21.00;80.00
38514;DHT22;24282;48.400;10.808;2023-06-22T06:49:56;21.10;79.90
38514;DHT22;24282;48.400;10.808;2023-06-22T06:52:22;21.10;80.10
38514;DHT22;24282;48.400;10.808;2023-06-22T06:54:48;21.10;80.00
38514;DHT22;24282;48.400;10.808;2023-06-22T06:57:14;21.30;80.20
38514;DHT22;24282;48.400;10.808;2023-06-22T06:59:40;21.30;80.00
38514;DHT22;24282;48.400;10.808;2023-06-22T07:02:07;21.40;79.50
38514;DHT22;24282;48.400;10.808;2023-06-22T07:04:33;21.40;79.30
38514;DHT22;24282;48.400;10.808;2023-06-22T07:07:01;21.50;79.60
38514;DHT22;24282;48.400;10.808;2023-06-22T07:09:27;21.60;79.30
38514;DHT22;24282;48.400;10.808;2023-06-22T07:11:53;21.60;78.90
38514;DHT22;24282;48.400;10.808;2023-06-22T07:14:18;21.70;78.70
38514;DHT22;24282;48.400;10.808;2023-06-22T07:16:44;21.80;78.60
38514;DHT22;24282;48.400;10.808;2023-06-22T07:19:11;21.80;78.70
38514;DHT22;24282;48.400;10.808;2023-06-22T07:21:38;21.90;79.00
38514;DHT22;24282;48.400;10.808;2023-06-22T07:24:06;21.90;79.20
38514;DHT22;24282;48.400;10.808;2023-06-22T07:26:32;22.00;78.90
38514;DHT22;24282;48.400;10.808;2023-06-22T07:28:58;22.10;78.50
38514;DHT22;24282;48.400;10.808;2023-06-22T07:31:27;22.20;78.20
38514;DHT22;24282;48.400;10.808;2023-06-22T07:33:52;22.30;77.90
38514;DHT22;24282;48.400;10.808;2023-06-22T07:36:18;22.40;77.90
38514;DHT22;24282;48.400;10.808;2023-06-22T07:38:44;22.40;77.70
38514;DHT22;24282;48.400;10.808;2023-06-22T07:41:10;22.50;77.30
38514;DHT22;24282;48.400;10.808;2023-06-22T07:43:35;22.60;77.20
38514;DHT22;24282;48.400;10.808;2023-06-22T07:46:05;22.80;77.20
38514;DHT22;24282;48.400;10.808;2023-06-22T07:48:31;22.90;77.20
38514;DHT22;24282;48.400;10.808;2023-06-22T07:50:57;23.10;77.00
38514;DHT22;24282;48.400;10.808;2023-06-22T07:53:23;23.20;75.70
38514;DHT22;24282;48.400;10.808;2023-06-22T07:55:49;23.30;74.70
38514;DHT22;24282;48.400;10.808;2023-06-22T07:58:15;23.40;73.60
38514;DHT22;24282;48.400;10.808;2023-06-22T08:00:41;23.60;73.70
38514;DHT22;24282;48.400;10.808;2023-06-22T08:03:07;23.70;73.70
38514;DHT22;24282;48.400;10.808;2023-06-22T08:05:33;23.80;73.70
38514;DHT22;24282;48.400;10.808;2023-06-22T08:07:59;23.90;72.50
38514;DHT22;24282;48.400;10.808;2023-06-22T08:10:25;24.00;72.20
38514;DHT22;24282;48.400;10.808;2023-06-22T08:12:51;24.20;72.00
38514;DHT22;24282;48.400;10.808;2023-06-22T08:15:18;24.30;71.50
38514;DHT22;24282;48.400;10.808;2023-06-22T08:17:44;24.40;70.90
38514;DHT22;24282;48.400;10.808;2023-06-22T08:20:11;24.60;71.20
38514;DHT22;24282;48.400;10.808;2023-06-22T08:22:40;24.80;71.20
38514;DHT22;24282;48.400;10.808;2023-06-22T08:25:08;24.90;70.30
38514;DHT22;24282;48.400;10.808;2023-06-22T08:27:34;25.10;70.20
38514;DHT22;24282;48.400;10.808;2023-06-22T08:30:01;25.20;70.10
38514;DHT22;24282;48.400;10.808;2023-06-22T08:32:28;25.30;69.00
38514;DHT22;24282;48.400;10.808;2023-06-22T08:34:57;25.40;68.60
38514;DHT22;24282;48.400;10.808;2023-06-22T08:37:23;25.60;68.10
38514;DHT22;24282;48.400;10.808;2023-06-22T08:39:56;25.80;68.10
38514;DHT22;24282;48.400;10.808;2023-06-22T08:42:22;25.80;67.50
38514;DHT22;24282;48.400;10.808;2023-06-22T08:44:50;25.90;66.60
38514;DHT22;24282;48.400;10.808;2023-06-22T08:47:15;26.10;66.70
38514;DHT22;24282;48.400;10.808;2023-06-22T08:49:41;26.20;65.90
38514;DHT22;24282;48.400;10.808;2023-06-22T08:52:07;26.30;65.90
38514;DHT22;24282;48.400;10.808;2023-06-22T08:54:33;26.40;65.60
38514;DHT22;24282;48.400;10.808;2023-06-22T08:57:00;26.50;65.50
38514;DHT22;24282;48.400;10.808;2023-06-22T08:59:26;26.60;65.50
38514;DHT22;24282;48.400;10.808;2023-06-22T09:01:52;26.70;65.10
38514;DHT22;24282;48.400;10.808;2023-06-22T09:04:17;26.80;64.80
38514;DHT22;24282;48.400;10.808;2023-06-22T09:06:43;26.90;64.60
38514;DHT22;24282;48.400;10.808;2023-06-22T09:09:12;27.00;64.80
38514;DHT22;24282;48.400;10.808;2023-06-22T09:11:38;27.10;65.00
38514;DHT22;24282;48.400;10.808;2023-06-22T09:14:03;27.20;65.00
38514;DHT22;24282;48.400;10.808;2023-06-22T09:16:30;27.30;64.10
38514;DHT22;24282;48.400;10.808;2023-06-22T09:18:56;27.40;62.20
38514;DHT22;24282;48.400;10.808;2023-06-22T09:21:21;27.50;62.60
38514;DHT22;24282;48.400;10.808;2023-06-22T09:23:47;27.60;63.20
38514;DHT22;24282;48.400;10.808;2023-06-22T09:26:17;27.70;63.20
38514;DHT22;24282;48.400;10.808;2023-06-22T09:28:43;27.80;62.10
38514;DHT22;24282;48.400;10.808;2023-06-22T09:31:09;27.90;62.10
38514;DHT22;24282;48.400;10.808;2023-06-22T09:33:36;28.00;62.00
38514;DHT22;24282;48.400;10.808;2023-06-22T09:36:12;28.10;61.50
38514;DHT22;24282;48.400;10.808;2023-06-22T09:38:38;28.20;60.90
38514;DHT22;24282;48.400;10.808;2023-06-22T09:41:04;28.30;61.00
38514;DHT22;24282;48.400;10.808;2023-06-22T09:43:32;28.30;60.10
38514;DHT22;24282;48.400;10.808;2023-06-22T09:46:00;28.30;60.50
38514;DHT22;24282;48.400;10.808;2023-06-22T09:48:27;28.30;59.70
38514;DHT22;24282;48.400;10.808;2023-06-22T09:50:54;28.30;59.80
38514;DHT22;24282;48.400;10.808;2023-06-22T09:53:20;28.40;60.70
38514;DHT22;24282;48.400;10.808;2023-06-22T09:55:46;28.40;60.60
38514;DHT22;24282;48.400;10.808;2023-06-22T09:58:12;28.50;61.00
38514;DHT22;24282;48.400;10.808;2023-06-22T10:00:38;28.60;61.40
38514;DHT22;24282;48.400;10.808;2023-06-22T10:03:04;28.80;61.30
38514;DHT22;24282;48.400;10.808;2023-06-22T10:05:29;28.90;60.10
38514;DHT22;24282;48.400;10.808;2023-06-22T10:07:55;29.10;59.70
38514;DHT22;24282;48.400;10.808;2023-06-22T10:10:21;29.30;58.40
38514;DHT22;24282;48.400;10.808;2023-06-22T10:12:55;29.30;57.80
38514;DHT22;24282;48.400;10.808;2023-06-22T10:15:21;29.10;57.30
38514;DHT22;24282;48.400;10.808;2023-06-22T10:17:47;28.90;57.90
38514;DHT22;24282;48.400;10.808;2023-06-22T10:20:13;28.70;58.60
38514;DHT22;24282;48.400;10.808;2023-06-22T10:22:43;28.50;59.20
38514;DHT22;24282;48.400;10.808;2023-06-22T10:25:10;28.40;59.80
38514;DHT22;24282;48.400;10.808;2023-06-22T10:27:36;28.40;59.80
38514;DHT22;24282;48.400;10.808;2023-06-22T10:30:02;28.40;59.70
38514;DHT22;24282;48.400;10.808;2023-06-22T10:32:28;28.60;60.10
38514;DHT22;24282;48.400;10.808;2023-06-22T10:34:54;28.70;59.40
38514;DHT22;24282;48.400;10.808;2023-06-22T10:37:20;28.80;59.20
38514;DHT22;24282;48.400;10.808;2023-06-22T10:39:46;28.90;59.70
38514;DHT22;24282;48.400;10.808;2023-06-22T10:42:12;29.10;59.60
38514;DHT22;24282;48.400;10.808;2023-06-22T10:44:38;29.30;58.50
38514;DHT22;24282;48.400;10.808;2023-06-22T10:47:06;29.60;58.00
38514;DHT22;24282;48.400;10.808;2023-06-22T10:49:32;29.90;57.80
38514;DHT22;24282;48.400;10.808;2023-06-22T10:51:57;30.20;56.10
38514;DHT22;24282;48.400;10.808;2023-06-22T10:54:23;30.40;55.20
38514;DHT22;24282;48.400;10.808;2023-06-22T10:56:49;30.60;54.50
38514;DHT22;24282;48.400;10.808;2023-06-22T10:59:15;30.80;53.70
38514;DHT22;24282;48.400;10.808;2023-06-22T11:01:41;30.80;53.30
38514;DHT22;24282;48.400;10.808;2023-06-22T11:04:07;30.70;53.00
38514;DHT22;24282;48.400;10.808;2023-06-22T11:06:33;30.80;53.10
38514;DHT22;24282;48.400;10.808;2023-06-22T11:08:59;30.80;53.10
38514;DHT22;24282;48.400;10.808;2023-06-22T11:11:25;30.90;52.50
38514;DHT22;24282;48.400;10.808;2023-06-22T11:13:52;31.10;52.00
38514;DHT22;24282;48.400;10.808;2023-06-22T11:16:17;31.10;52.10
38514;DHT22;24282;48.400;10.808;2023-06-22T11:18:43;31.20;51.30
38514;DHT22;24282;48.400;10.808;2023-06-22T11:21:09;31.30;51.80
38514;DHT22;24282;48.400;10.808;2023-06-22T11:23:35;31.50;52.30
38514;DHT22;24282;48.400;10.808;2023-06-22T11:26:00;31.50;51.60
38514;DHT22;24282;48.400;10.808;2023-06-22T11:28:27;31.60;51.40
38514;DHT22;24282;48.400;10.808;2023-06-22T11:30:52;31.70;51.00
38514;DHT22;24282;48.400;10.808;2023-06-22T11:33:18;31.70;50.20
38514;DHT22;24282;48.400;10.808;2023-06-22T11:35:44;31.80;50.80
38514;DHT22;24282;48.400;10.808;2023-06-22T11:38:10;31.80;51.50
38514;DHT22;24282;48.400;10.808;2023-06-22T11:40:36;31.80;49.90
38514;DHT22;24282;48.400;10.808;2023-06-22T11:43:01;31.80;50.40
38514;DHT22;24282;48.400;10.808;2023-06-22T11:45:28;31.90;50.70
38514;DHT22;24282;48.400;10.808;2023-06-22T11:47:53;31.90;49.60
38514;DHT22;24282;48.400;10.808;2023-06-22T11:50:19;31.80;49.40
38514;DHT22;24282;48.400;10.808;2023-06-22T11:52:45;31.80;49.50
38514;DHT22;24282;48.400;10.808;2023-06-22T11:55:11;31.90;49.50
38514;DHT22;24282;48.400;10.808;2023-06-22T11:57:38;31.90;49.70
38514;DHT22;24282;48.400;10.808;2023-06-22T12:00:04;31.80;49.00
38514;DHT22;24282;48.400;10.808;2023-06-22T12:02:41;31.70;49.30
38514;DHT22;24282;48.400;10.808;2023-06-22T12:05:07;31.40;50.40
38514;DHT22;24282;48.400;10.808;2023-06-22T12:07:33;31.30;51.50
38514;DHT22;24282;48.400;10.808;2023-06-22T12:09:59;31.00;52.10
38514;DHT22;24282;48.400;10.808;2023-06-22T12:12:25;30.90;52.60
38514;DHT22;24282;48.400;10.808;2023-06-22T12:14:50;30.80;52.00
38514;DHT22;24282;48.400;10.808;2023-06-22T12:17:16;30.90;52.40
38514;DHT22;24282;48.400;10.808;2023-06-22T12:19:42;31.00;52.70
38514;DHT22;24282;48.400;10.808;2023-06-22T12:22:07;31.10;52.20
38514;DHT22;24282;48.400;10.808;2023-06-22T12:24:33;31.20;51.20
38514;DHT22;24282;48.400;10.808;2023-06-22T12:26:59;31.30;51.00
38514;DHT22;24282;48.400;10.808;2023-06-22T12:29:24;31.50;50.00
38514;DHT22;24282;48.400;10.808;2023-06-22T12:31:50;31.60;49.90
38514;DHT22;24282;48.400;10.808;2023-06-22T12:34:16;31.60;50.00
38514;DHT22;24282;48.400;10.808;2023-06-22T12:36:41;31.70;50.40
38514;DHT22;24282;48.400;10.808;2023-06-22T12:39:07;31.70;48.40
38514;DHT22;24282;48.400;10.808;2023-06-22T12:41:33;31.90;48.60
38514;DHT22;24282;48.400;10.808;2023-06-22T12:43:59;32.00;47.90
38514;DHT22;24282;48.400;10.808;2023-06-22T12:46:24;32.20;47.40
38514;DHT22;24282;48.400;10.808;2023-06-22T12:48:50;32.30;47.70
38514;DHT22;24282;48.400;10.808;2023-06-22T12:51:22;32.40;48.60
38514;DHT22;24282;48.400;10.808;2023-06-22T12:53:48;32.50;48.70
38514;DHT22;24282;48.400;10.808;2023-06-22T12:56:14;32.60;47.40
38514;DHT22;24282;48.400;10.808;2023-06-22T12:58:40;32.70;47.50
38514;DHT22;24282;48.400;10.808;2023-06-22T13:01:05;32.70;46.50
38514;DHT22;24282;48.400;10.808;2023-06-22T13:03:31;32.70;47.10
38514;DHT22;24282;48.400;10.808;2023-06-22T13:05:57;32.80;47.50
38514;DHT22;24282;48.400;10.808;2023-06-22T13:08:22;32.90;46.80
38514;DHT22;24282;48.400;10.808;2023-06-22T13:10:48;32.90;46.60
38514;DHT22;24282;48.400;10.808;2023-06-22T13:13:14;33.00;46.30
38514;DHT22;24282;48.400;10.808;2023-06-22T13:15:39;33.00;46.30
38514;DHT22;24282;48.400;10.808;2023-06-22T13:18:05;33.00;46.50
38514;DHT22;24282;48.400;10.808;2023-06-22T13:20:31;33.10;46.20
38514;DHT22;24282;48.400;10.808;2023-06-22T13:22:57;33.10;45.00
38514;DHT22;24282;48.400;10.808;2023-06-22T13:25:23;33.00;44.30
38514;DHT22;24282;48.400;10.808;2023-06-22T13:27:52;32.90;45.50
38514;DHT22;24282;48.400;10.808;2023-06-22T13:30:18;32.90;46.10
38514;DHT22;24282;48.400;10.808;2023-06-22T13:32:43;33.00;45.70
38514;DHT22;24282;48.400;10.808;2023-06-22T13:35:10;33.20;45.80
38514;DHT22;24282;48.400;10.808;2023-06-22T13:37:36;33.30;44.10
38514;DHT22;24282;48.400;10.808;2023-06-22T13:40:01;33.50;41.90
38514;DHT22;24282;48.400;10.808;2023-06-22T13:42:30;33.50;42.40
38514;DHT22;24282;48.400;10.808;2023-06-22T13:44:56;33.40;42.80
38514;DHT22;24282;48.400;10.808;2023-06-22T13:47:22;33.20;43.60
38514;DHT22;24282;48.400;10.808;2023-06-22T13:49:47;33.00;42.40
38514;DHT22;24282;48.400;10.808;2023-06-22T13:52:13;32.70;42.70
38514;DHT22;24282;48.400;10.808;2023-06-22T13:54:39;32.40;44.00
38514;DHT22;24282;48.400;10.808;2023-06-22T13:57:05;32.20;44.20
38514;DHT22;24282;48.400;10.808;2023-06-22T13:59:31;31.90;45.00
38514;DHT22;24282;48.400;10.808;2023-06-22T14:01:57;31.70;46.00
38514;DHT22;24282;48.400;10.808;2023-06-22T14:04:25;31.60;46.20
38514;DHT22;24282;48.400;10.808;2023-06-22T14:06:51;31.50;46.20
38514;DHT22;24282;48.400;10.808;2023-06-22T14:09:17;31.50;46.30
38514;DHT22;24282;48.400;10.808;2023-06-22T14:11:43;31.30;46.10
38514;DHT22;24282;48.400;10.808;2023-06-22T14:14:08;31.40;46.20
38514;DHT22;24282;48.400;10.808;2023-06-22T14:16:34;31.40;47.10
38514;DHT22;24282;48.400;10.808;2023-06-22T14:19:00;31.40;46.00
38514;DHT22;24282;48.400;10.808;2023-06-22T14:21:26;31.30;46.50
38514;DHT22;24282;48.400;10.808;2023-06-22T14:23:52;31.30;47.40
38514;DHT22;24282;48.400;10.808;2023-06-22T14:26:18;31.30;47.30
38514;DHT22;24282;48.400;10.808;2023-06-22T14:28:47;31.30;47.50
38514;DHT22;24282;48.400;10.808;2023-06-22T14:31:14;31.60;48.10
38514;DHT22;24282;48.400;10.808;2023-06-22T14:33:40;31.80;47.20
38514;DHT22;24282;48.400;10.808;2023-06-22T14:36:06;31.90;46.00
38514;DHT22;24282;48.400;10.808;2023-06-22T14:38:32;32.00;45.90
38514;DHT22;24282;48.400;10.808;2023-06-22T14:40:57;32.10;45.70
38514;DHT22;24282;48.400;10.808;2023-06-22T14:43:23;32.20;44.80
38514;DHT22;24282;48.400;10.808;2023-06-22T14:45:50;32.30;45.90
38514;DHT22;24282;48.400;10.808;2023-06-22T14:48:16;32.50;45.40
38514;DHT22;24282;48.400;10.808;2023-06-22T14:50:42;32.70;45.10
38514;DHT22;24282;48.400;10.808;2023-06-22T14:53:07;32.80;43.60
38514;DHT22;24282;48.400;10.808;2023-06-22T14:55:33;32.90;43.10
38514;DHT22;24282;48.400;10.808;2023-06-22T14:57:59;33.00;42.90
38514;DHT22;24282;48.400;10.808;2023-06-22T15:00:24;33.00;43.20
38514;DHT22;24282;48.400;10.808;2023-06-22T15:02:50;33.00;42.90
38514;DHT22;24282;48.400;10.808;2023-06-22T15:05:17;33.10;41.60
38514;DHT22;24282;48.400;10.808;2023-06-22T15:07:43;33.20;41.50
38514;DHT22;24282;48.400;10.808;2023-06-22T15:10:09;33.20;42.40
38514;DHT22;24282;48.400;10.808;2023-06-22T15:12:34;33.20;41.90